Disclaimer

Please do not use the information listed here in-flight or in-navigation, as they are not provided to us by the airports but are provided by volunteers, so they might be outdated.

Search


Regions


Airport information page

Radio informations:
Melbourne Center - 124.9 MHz
Common traffic adv. frequency (CTAF) - 126.7 MHz

Airport informations:
Latitude: 31° 32' 18.00" S
Longitude: 145° 47' 38.00" E
Elevation: 724 feet - 221 meters
Operating hours: N/A
Operating agency: Civil government, landing fees and diplomatic clearance may be required
Timezone: UTC+10(+11DT)
Fuel: Jet A1, without icing nhibitor.

100/130 MIL Spec, low lead, aviation gasoline (BLUE)

Runway information:
05/23 - 4984 x 98 feet< - >1519 x 30 meters
17/35 - 4006 x 98 feet< - >1221 x 30 meters

Recent METARs:
YCBA 141600Z AUTO 00000KT 9999 // NCD 18/18 Q1015
YCBA 141700Z AUTO 00000KT 9999 // SCT061 BKN074 18/18 Q1016
YCBA 141700Z AUTO 00000KT 9999 // SCT061 BKN074 18/18 Q1016

Airport on the map: